Time;durP1;ratioP1;P1;durP2;ratioP2;P2;SDS_P1;SDS_P2;PMS_P1;PMS_P2;Temp;Humidity;BMP_temperature;BMP_pressure;BME280_temperature;BME280_humidity;BME280_pressure;Samples;Min_cycle;Max_cycle;Signal;HPM_P1;HPM_P2
2021/01/04 00:01:47;;;;;;;52.35;27.02;;;5.10;80.30;;;;;;5096370;28;20036;-43
2021/01/04 00:04:36;;;;;;;50.65;26.80;;;5.10;80.30;;;;;;5095316;28;20036;-43
2021/01/04 00:07:35;;;;;;;51.63;25.75;;;5.10;80.20;;;;;;5095351;28;20036;-42
2021/01/04 00:10:31;;;;;;;44.65;24.52;;;5.10;80.10;;;;;;5095522;28;20028;-43
2021/01/04 00:13:24;;;;;;;48.33;26.05;;;5.10;80.20;;;;;;5095795;28;20077;-42
2021/01/04 00:15:57;;;;;;;48.03;24.98;;;5.10;80.20;;;;;;5094203;28;20105;-41
2021/01/04 00:19:10;;;;;;;46.28;24.10;;;5.10;80.80;;;;;;5095758;28;20043;-41
2021/01/04 00:21:48;;;;;;;52.25;26.48;;;5.10;80.10;;;;;;5022549;28;20068;-41
2021/01/04 00:24:32;;;;;;;46.20;23.67;;;5.10;80.10;;;;;;5096046;28;20093;-42
2021/01/04 00:27:07;;;;;;;46.67;25.67;;;5.10;80.10;;;;;;5094949;28;20327;-42
2021/01/04 00:29:33;;;;;;;54.72;27.30;;;5.10;80.20;;;;;;5095447;28;20425;-42
2021/01/04 00:32:05;;;;;;;43.38;24.92;;;5.10;80.30;;;;;;5095114;28;20115;-41
2021/01/04 00:34:41;;;;;;;55.42;27.95;;;5.10;80.40;;;;;;5093981;28;20020;-41
2021/01/04 00:37:30;;;;;;;46.13;23.52;;;5.10;80.30;;;;;;5095872;28;20028;-42
2021/01/04 00:40:20;;;;;;;49.38;26.92;;;5.10;80.30;;;;;;5094973;28;20081;-41
2021/01/04 00:42:50;;;;;;;43.92;24.20;;;5.10;80.30;;;;;;5078770;28;20016;-42
2021/01/04 00:45:36;;;;;;;44.40;24.10;;;5.10;80.40;;;;;;5095171;28;20044;-42
2021/01/04 00:48:24;;;;;;;46.85;24.83;;;5.10;80.60;;;;;;5097993;28;20393;-41
2021/01/04 00:51:07;;;;;;;39.55;20.73;;;5.00;80.50;;;;;;5099786;28;20082;-42
2021/01/04 00:53:35;;;;;;;43.70;24.00;;;5.10;80.60;;;;;;5097971;28;20039;-41
2021/01/04 00:56:26;;;;;;;53.83;26.58;;;5.10;80.80;;;;;;5099484;28;20035;-42
2021/01/04 00:59:04;;;;;;;53.47;25.98;;;5.10;80.80;;;;;;5090298;28;20047;-41
2021/01/04 01:01:37;;;;;;;52.60;26.38;;;5.10;80.90;;;;;;5100275;28;20040;-42
2021/01/04 01:04:23;;;;;;;51.78;26.95;;;5.10;80.90;;;;;;5090458;28;20146;-41
2021/01/04 01:07:09;;;;;;;57.88;29.23;;;5.10;80.70;;;;;;5089091;28;20024;-41
2021/01/04 01:09:40;;;;;;;62.00;26.77;;;5.20;80.70;;;;;;5086628;28;20024;-42
2021/01/04 01:12:12;;;;;;;58.92;29.23;;;5.10;80.70;;;;;;5095235;28;20069;-41
2021/01/04 01:14:42;;;;;;;58.97;29.80;;;5.20;80.80;;;;;;5098865;28;20031;-41
2021/01/04 01:17:26;;;;;;;62.22;32.75;;;5.20;80.80;;;;;;5090767;28;20020;-42
2021/01/04 01:19:56;;;;;;;55.22;28.40;;;5.20;80.70;;;;;;5083975;28;20345;-42
2021/01/04 01:22:39;;;;;;;50.70;24.80;;;5.20;80.70;;;;;;5089622;28;20067;-42
2021/01/04 01:25:15;;;;;;;55.17;28.88;;;5.20;80.70;;;;;;5081892;28;20045;-42
2021/01/04 01:27:43;;;;;;;55.83;27.92;;;5.20;80.70;;;;;;5092496;28;20075;-43
2021/01/04 01:30:10;;;;;;;52.60;25.77;;;5.20;80.60;;;;;;5091709;28;20450;-41
2021/01/04 01:33:02;;;;;;;50.40;26.25;;;5.20;80.70;;;;;;5089334;28;20024;-42
2021/01/04 01:35:28;;;;;;;54.42;29.10;;;5.20;80.70;;;;;;5093770;28;20028;-42
2021/01/04 01:38:17;;;;;;;51.83;27.33;;;5.20;80.70;;;;;;5092806;28;20051;-43
2021/01/04 01:41:12;;;;;;;56.65;29.55;;;5.20;80.60;;;;;;5093336;28;20044;-43
2021/01/04 01:43:57;;;;;;;58.33;29.67;;;5.20;80.60;;;;;;5089801;28;20016;-41
2021/01/04 01:46:37;;;;;;;51.88;27.40;;;5.20;80.60;;;;;;5092191;28;20051;-42
2021/01/04 01:49:06;;;;;;;54.60;29.17;;;5.20;80.70;;;;;;5080851;28;20032;-42
2021/01/04 01:52:10;;;;;;;49.05;25.85;;;5.20;80.60;;;;;;5088196;28;20039;-42
2021/01/04 01:54:36;;;;;;;54.13;26.92;;;5.20;80.50;;;;;;5055488;28;20036;-41
2021/01/04 01:57:23;;;;;;;43.22;24.58;;;5.30;80.50;;;;;;5089132;28;20082;-43
2021/01/04 02:00:21;;;;;;;44.75;24.65;;;5.30;80.50;;;;;;5079896;28;20016;-41
2021/01/04 02:02:50;;;;;;;46.33;24.45;;;5.20;80.40;;;;;;5047723;28;20097;-43
2021/01/04 02:05:53;;;;;;;49.58;25.55;;;5.20;80.80;;;;;;5091676;28;20072;-42
2021/01/04 02:08:31;;;;;;;45.42;26.17;;;5.20;80.30;;;;;;5080735;28;20162;-42
2021/01/04 02:11:10;;;;;;;48.72;26.88;;;5.20;80.40;;;;;;5088887;28;20032;-43
2021/01/04 02:13:52;;;;;;;44.92;24.85;;;5.20;80.50;;;;;;5077896;28;20042;-42
2021/01/04 02:16:29;;;;;;;44.78;24.92;;;5.20;80.50;;;;;;5088230;28;20529;-43
2021/01/04 02:19:09;;;;;;;48.03;25.85;;;5.20;80.50;;;;;;5077452;28;20104;-43
2021/01/04 02:22:05;;;;;;;43.65;23.83;;;5.20;80.50;;;;;;5086116;28;20493;-42
2021/01/04 02:24:31;;;;;;;40.20;20.27;;;5.20;80.40;;;;;;5084223;28;20342;-42
2021/01/04 02:26:56;;;;;;;46.40;23.67;;;5.20;80.50;;;;;;5097907;28;20028;-43
2021/01/04 02:29:22;;;;;;;45.35;22.48;;;5.20;80.60;;;;;;5091426;28;20364;-43
2021/01/04 02:31:59;;;;;;;44.55;23.60;;;5.20;80.60;;;;;;5084480;28;20024;-42
2021/01/04 02:34:31;;;;;;;43.03;22.38;;;5.30;80.60;;;;;;5086847;28;20103;-43
2021/01/04 02:36:58;;;;;;;34.10;18.50;;;5.20;80.70;;;;;;5098208;28;20166;-42
2021/01/04 02:39:36;;;;;;;37.88;22.13;;;5.30;80.90;;;;;;5090876;28;20073;-42
2021/01/04 02:42:08;;;;;;;33.33;18.73;;;5.30;80.90;;;;;;5079982;28;20040;-42
2021/01/04 02:44:35;;;;;;;33.65;19.30;;;5.30;81.30;;;;;;5087382;28;20040;-42
2021/01/04 02:47:33;;;;;;;35.60;19.35;;;5.30;80.60;;;;;;5077601;28;20021;-42
2021/01/04 02:50:31;;;;;;;32.75;19.38;;;5.40;80.40;;;;;;5069727;28;20119;-42
2021/01/04 02:52:57;;;;;;;34.65;20.92;;;5.40;80.00;;;;;;5071498;28;20032;-42
2021/01/04 02:55:52;;;;;;;36.95;19.52;;;5.30;80.10;;;;;;5085510;28;20028;-42
2021/01/04 02:58:29;;;;;;;32.47;18.42;;;5.30;80.30;;;;;;5081735;28;20021;-43
2021/01/04 03:01:02;;;;;;;32.40;18.90;;;5.40;80.40;;;;;;5095682;28;20067;-42
2021/01/04 03:03:30;;;;;;;36.72;20.73;;;5.40;80.40;;;;;;5095981;28;20122;-42
2021/01/04 03:06:00;;;;;;;42.50;21.23;;;5.40;80.40;;;;;;5096958;28;20044;-42
2021/01/04 03:08:25;;;;;;;36.92;20.50;;;5.40;80.50;;;;;;5095523;28;20027;-42
2021/01/04 03:10:51;;;;;;;37.47;19.98;;;5.40;80.40;;;;;;5096376;28;20032;-43
2021/01/04 03:13:29;;;;;;;37.22;19.17;;;5.50;80.30;;;;;;5094813;28;20699;-43
2021/01/04 03:16:04;;;;;;;39.17;19.35;;;5.40;80.10;;;;;;5096476;28;20063;-42
2021/01/04 03:18:39;;;;;;;42.25;21.60;;;5.40;80.10;;;;;;5095846;28;20020;-42
2021/01/04 03:21:06;;;;;;;44.95;23.33;;;5.40;80.10;;;;;;5096901;28;20105;-42
2021/01/04 03:23:33;;;;;;;45.83;23.13;;;5.50;80.20;;;;;;5094649;28;20054;-42
2021/01/04 03:26:09;;;;;;;39.78;20.42;;;5.50;80.20;;;;;;5095564;28;20044;-42
2021/01/04 03:28:34;;;;;;;40.47;22.25;;;5.40;80.00;;;;;;5093887;28;20536;-42
2021/01/04 03:31:05;;;;;;;40.63;21.20;;;5.40;79.90;;;;;;5096361;28;20123;-42
2021/01/04 03:33:31;;;;;;;41.92;22.25;;;5.40;80.00;;;;;;5095067;28;20318;-42
2021/01/04 03:35:57;;;;;;;54.42;27.15;;;5.40;80.00;;;;;;5096164;28;20032;-42
2021/01/04 03:38:23;;;;;;;44.55;23.67;;;5.40;79.90;;;;;;5088112;28;20024;-43
2021/01/04 03:40:50;;;;;;;50.17;28.10;;;5.40;79.90;;;;;;5081544;28;20028;-42
2021/01/04 03:43:16;;;;;;;49.63;25.70;;;5.40;79.90;;;;;;5088605;28;20035;-42
2021/01/04 03:45:43;;;;;;;41.67;22.55;;;5.40;79.90;;;;;;5094831;28;20361;-42
2021/01/04 03:48:09;;;;;;;52.22;27.10;;;5.40;79.90;;;;;;5089689;28;20453;-42
2021/01/04 03:50:35;;;;;;;42.42;23.30;;;5.50;79.90;;;;;;5093391;28;20321;-42
2021/01/04 03:53:00;;;;;;;43.60;24.20;;;5.40;79.90;;;;;;5092440;28;20036;-43
2021/01/04 03:55:26;;;;;;;48.50;25.52;;;5.40;79.90;;;;;;5091148;28;20032;-42
2021/01/04 03:57:52;;;;;;;42.58;22.95;;;5.40;79.90;;;;;;5084610;28;20032;-43
2021/01/04 04:00:19;;;;;;;40.03;22.27;;;5.40;79.90;;;;;;5084241;28;20028;-42
2021/01/04 04:02:45;;;;;;;42.85;23.35;;;5.40;80.00;;;;;;5084723;28;20066;-43
2021/01/04 04:05:13;;;;;;;42.50;21.77;;;5.50;80.00;;;;;;5091744;28;20407;-43
2021/01/04 04:07:40;;;;;;;80.93;41.50;;;5.50;79.80;;;;;;5086724;28;20020;-42
2021/01/04 04:10:06;;;;;;;66.68;36.30;;;5.50;79.70;;;;;;5091377;28;20034;-44
2021/01/04 04:12:31;;;;;;;47.33;26.05;;;5.50;79.70;;;;;;5094085;28;20032;-46
2021/01/04 04:14:57;;;;;;;42.83;23.38;;;5.50;79.70;;;;;;5094907;28;20088;-43
2021/01/04 04:17:23;;;;;;;43.50;22.95;;;5.40;79.60;;;;;;5074333;28;20016;-42
2021/01/04 04:19:50;;;;;;;47.60;25.42;;;5.50;79.60;;;;;;5087865;28;20046;-42
2021/01/04 04:22:17;;;;;;;44.92;23.20;;;5.50;79.60;;;;;;5095799;28;20039;-42
2021/01/04 04:24:45;;;;;;;51.90;26.30;;;5.40;79.50;;;;;;5094397;28;20303;-43
2021/01/04 04:27:12;;;;;;;56.00;28.42;;;5.50;79.60;;;;;;5095588;28;20078;-43
2021/01/04 04:29:38;;;;;;;49.83;25.98;;;5.40;80.00;;;;;;5095349;28;20368;-42
2021/01/04 04:32:05;;;;;;;45.08;23.85;;;5.40;79.50;;;;;;5095714;28;20099;-42
2021/01/04 04:34:32;;;;;;;43.22;23.65;;;5.40;79.60;;;;;;5095333;28;20028;-42
2021/01/04 04:36:57;;;;;;;47.13;26.85;;;5.40;79.60;;;;;;5094979;28;20040;-42
2021/01/04 04:39:23;;;;;;;48.78;25.13;;;5.50;79.80;;;;;;5095140;28;20028;-45
2021/01/04 04:41:51;;;;;;;46.17;26.50;;;5.50;79.70;;;;;;5096222;28;20321;-42
2021/01/04 04:44:41;;;;;;;48.63;27.05;;;5.50;79.60;;;;;;5094898;28;20072;-43
2021/01/04 04:47:27;;;;;;;38.38;22.48;;;5.40;79.50;;;;;;5095353;28;20073;-42
2021/01/04 04:50:01;;;;;;;49.97;27.52;;;5.50;79.50;;;;;;5094664;28;20429;-42
2021/01/04 04:52:41;;;;;;;53.00;26.92;;;5.50;79.60;;;;;;5093262;28;20032;-43
2021/01/04 04:55:32;;;;;;;48.08;25.83;;;5.50;79.60;;;;;;5085741;28;20102;-42
2021/01/04 04:58:17;;;;;;;64.03;34.73;;;5.50;79.50;;;;;;5091609;28;20024;-42
2021/01/04 05:01:13;;;;;;;53.25;29.55;;;5.50;79.50;;;;;;5085670;28;20702;-42
2021/01/04 05:03:45;;;;;;;49.10;24.67;;;5.50;79.50;;;;;;5085999;28;20215;-42
2021/01/04 05:06:41;;;;;;;50.20;24.13;;;5.50;79.50;;;;;;5092632;28;20452;-42
2021/01/04 05:09:12;;;;;;;45.65;25.40;;;5.50;79.60;;;;;;5093728;28;20024;-42
2021/01/04 05:11:41;;;;;;;44.22;24.20;;;5.50;79.50;;;;;;5088456;28;20110;-43
2021/01/04 05:14:18;;;;;;;49.47;26.25;;;5.50;79.50;;;;;;5086341;28;20329;-42
2021/01/04 05:17:02;;;;;;;45.78;23.75;;;5.50;80.00;;;;;;5093139;28;20024;-42
2021/01/04 05:19:28;;;;;;;46.30;24.17;;;5.50;79.30;;;;;;5083866;28;20044;-43
2021/01/04 05:22:20;;;;;;;40.42;23.50;;;5.40;79.30;;;;;;5083648;28;20048;-43
2021/01/04 05:25:15;;;;;;;41.45;22.90;;;5.50;79.30;;;;;;5091079;28;20071;-42
2021/01/04 05:28:09;;;;;;;39.88;22.17;;;5.50;79.30;;;;;;5078089;28;20044;-43
2021/01/04 05:31:00;;;;;;;41.92;22.52;;;5.50;79.20;;;;;;5087831;28;20032;-43
2021/01/04 05:33:43;;;;;;;51.50;27.33;;;5.50;78.90;;;;;;5070061;28;20056;-42
2021/01/04 05:36:18;;;;;;;47.55;26.70;;;5.40;79.00;;;;;;5086960;28;20040;-42
2021/01/04 05:39:11;;;;;;;40.05;22.52;;;5.40;79.20;;;;;;5078626;28;20013;-43
2021/01/04 05:42:08;;;;;;;45.88;24.27;;;5.50;79.70;;;;;;5086074;28;20124;-42
2021/01/04 05:44:58;;;;;;;50.58;25.92;;;5.40;79.00;;;;;;5080661;28;20028;-42
2021/01/04 05:47:33;;;;;;;46.97;24.87;;;5.40;79.00;;;;;;5090300;28;20177;-42
2021/01/04 05:50:06;;;;;;;57.95;29.98;;;5.40;79.00;;;;;;5093896;28;20024;-42
2021/01/04 05:52:33;;;;;;;54.40;28.83;;;5.40;79.10;;;;;;5092836;28;20028;-42
2021/01/04 05:54:59;;;;;;;59.05;27.95;;;5.40;79.10;;;;;;5080053;28;20038;-42
2021/01/04 05:57:25;;;;;;;61.08;31.02;;;5.40;79.10;;;;;;5077504;28;20027;-43
2021/01/04 05:59:56;;;;;;;61.88;31.90;;;5.30;79.20;;;;;;5075191;28;20712;-42
2021/01/04 06:02:26;;;;;;;57.53;28.90;;;5.40;79.20;;;;;;5075549;28;20067;-42
2021/01/04 06:04:53;;;;;;;54.67;28.52;;;5.40;79.30;;;;;;5075313;28;20047;-42
2021/01/04 06:07:20;;;;;;;59.25;29.63;;;5.30;79.20;;;;;;5075632;28;20074;-42
2021/01/04 06:09:56;;;;;;;62.05;32.05;;;5.40;79.20;;;;;;5091815;28;20032;-42
2021/01/04 06:12:40;;;;;;;65.20;31.80;;;5.40;79.10;;;;;;5091023;28;20038;-42
2021/01/04 06:15:08;;;;;;;72.90;33.30;;;5.40;79.10;;;;;;5095899;28;20130;-42
2021/01/04 06:17:45;;;;;;;55.47;29.98;;;5.40;79.30;;;;;;5094261;28;20028;-42
2021/01/04 06:20:25;;;;;;;89.38;43.78;;;5.40;79.30;;;;;;5093447;28;20442;-42
2021/01/04 06:22:52;;;;;;;65.00;32.90;;;5.40;79.40;;;;;;5095275;28;20028;-42
2021/01/04 06:25:18;;;;;;;69.40;32.15;;;5.40;79.40;;;;;;5094083;28;20047;-42
2021/01/04 06:27:47;;;;;;;57.60;29.40;;;5.40;79.40;;;;;;5093294;28;20012;-42
2021/01/04 06:30:35;;;;;;;71.43;38.75;;;5.40;79.50;;;;;;5092426;28;20035;-42
2021/01/04 06:33:21;;;;;;;113.65;58.83;;;5.50;79.60;;;;;;5094817;28;20082;-43
2021/01/04 06:35:58;;;;;;;125.57;68.82;;;5.40;79.50;;;;;;5075546;28;20035;-41
2021/01/04 06:38:29;;;;;;;148.05;74.10;;;5.50;79.60;;;;;;5094077;28;20023;-42
2021/01/04 06:40:55;;;;;;;112.13;57.10;;;5.50;79.40;;;;;;5095100;28;20120;-42
2021/01/04 06:43:32;;;;;;;98.40;46.53;;;5.50;79.10;;;;;;5095510;28;20020;-43
2021/01/04 06:46:25;;;;;;;91.18;51.38;;;5.50;78.70;;;;;;5094954;28;20132;-42
2021/01/04 06:49:15;;;;;;;83.78;45.40;;;5.50;78.50;;;;;;5094842;28;20134;-42
2021/01/04 06:52:08;;;;;;;74.60;40.10;;;5.50;78.40;;;;;;5075131;28;20040;-45
2021/01/04 06:54:55;;;;;;;63.38;34.75;;;5.50;78.40;;;;;;5092122;28;20332;-38
2021/01/04 06:57:21;;;;;;;65.43;35.03;;;5.40;78.70;;;;;;5094687;28;20027;-38
2021/01/04 06:59:55;;;;;;;61.60;33.83;;;5.40;78.80;;;;;;5094098;28;20038;-37
2021/01/04 07:02:40;;;;;;;86.45;46.03;;;5.40;78.90;;;;;;5095215;28;20035;-38
2021/01/04 07:05:05;;;;;;;71.88;35.90;;;5.50;78.90;;;;;;5094399;28;20440;-37
2021/01/04 07:07:48;;;;;;;74.78;40.85;;;5.50;79.00;;;;;;5095261;28;20020;-39
2021/01/04 07:10:40;;;;;;;82.25;39.38;;;5.50;79.10;;;;;;5095117;28;20028;-38
2021/01/04 07:13:17;;;;;;;90.35;41.45;;;5.50;79.00;;;;;;5094689;28;20452;-38
2021/01/04 07:16:09;;;;;;;91.28;42.03;;;5.50;79.10;;;;;;5096779;28;20028;-37
2021/01/04 07:18:52;;;;;;;85.32;41.38;;;5.50;79.10;;;;;;5095487;28;20491;-38
2021/01/04 07:21:33;;;;;;;92.68;45.65;;;5.60;79.00;;;;;;5096613;28;20095;-37
2021/01/04 07:24:20;;;;;;;75.82;43.03;;;5.60;78.90;;;;;;5096303;28;20052;-38
2021/01/04 07:27:11;;;;;;;71.57;35.65;;;5.60;78.80;;;;;;5097025;28;20036;-37
2021/01/04 07:29:57;;;;;;;71.40;36.53;;;5.60;78.60;;;;;;5095936;28;20328;-38
2021/01/04 07:32:47;;;;;;;70.10;36.65;;;5.50;78.60;;;;;;5097060;28;20051;-37
2021/01/04 07:35:21;;;;;;;71.68;38.00;;;5.50;78.30;;;;;;5094995;28;20031;-37
2021/01/04 07:37:50;;;;;;;79.65;39.10;;;5.50;78.40;;;;;;5094860;28;20024;-37
2021/01/04 07:40:44;;;;;;;84.90;40.97;;;5.50;78.40;;;;;;5095959;28;20039;-37
2021/01/04 07:43:30;;;;;;;71.47;36.92;;;5.50;78.40;;;;;;5094809;28;20024;-37
2021/01/04 07:46:29;;;;;;;94.47;46.95;;;5.50;78.70;;;;;;5095884;28;20380;-37
2021/01/04 07:49:22;;;;;;;82.68;43.10;;;5.50;78.60;;;;;;5094494;28;20440;-37
2021/01/04 07:52:24;;;;;;;89.30;45.50;;;5.50;78.30;;;;;;5094386;28;20024;-37
2021/01/04 07:55:12;;;;;;;75.32;38.17;;;5.50;78.60;;;;;;5090620;28;20088;-37
2021/01/04 07:58:02;;;;;;;81.75;41.10;;;5.40;78.70;;;;;;5092841;28;20093;-38
2021/01/04 08:00:43;;;;;;;82.30;42.45;;;5.50;78.80;;;;;;5092236;28;20028;-38
2021/01/04 08:03:35;;;;;;;75.03;37.55;;;5.50;79.00;;;;;;5072925;28;20031;-38
2021/01/04 08:06:18;;;;;;;83.45;39.30;;;5.50;78.70;;;;;;5068821;28;20445;-39
2021/01/04 08:08:53;;;;;;;75.65;35.65;;;5.50;78.70;;;;;;5085409;28;20021;-39
2021/01/04 08:11:27;;;;;;;88.93;44.80;;;5.50;78.40;;;;;;5089580;28;20035;-38
2021/01/04 08:14:08;;;;;;;130.20;64.07;;;5.50;78.40;;;;;;5093881;28;20020;-39
2021/01/04 08:16:58;;;;;;;107.43;53.92;;;5.50;78.30;;;;;;5095666;28;20028;-40
2021/01/04 08:19:31;;;;;;;94.53;48.90;;;5.50;78.60;;;;;;5091335;28;20105;-40
2021/01/04 08:22:24;;;;;;;98.35;53.00;;;5.50;78.70;;;;;;5092390;28;20047;-39
2021/01/04 08:25:03;;;;;;;96.57;52.88;;;5.50;78.80;;;;;;5094155;28;20064;-40
2021/01/04 08:27:37;;;;;;;93.28;48.38;;;5.50;78.80;;;;;;5095265;28;20028;-42
2021/01/04 08:30:23;;;;;;;74.28;36.50;;;5.50;78.80;;;;;;5100820;28;20426;-43
2021/01/04 08:32:52;;;;;;;78.97;39.38;;;5.60;78.90;;;;;;5114999;28;20116;-42
2021/01/04 08:35:41;;;;;;;90.32;42.40;;;5.60;78.90;;;;;;5104184;28;20039;-43
2021/01/04 08:38:22;;;;;;;77.53;41.42;;;5.70;79.10;;;;;;5115221;28;20059;-41
2021/01/04 08:40:53;;;;;;;89.57;44.45;;;5.80;78.90;;;;;;5111960;28;20020;-41
2021/01/04 08:43:30;;;;;;;85.63;43.28;;;5.80;79.00;;;;;;5103494;28;20140;-42
2021/01/04 08:45:56;;;;;;;79.82;38.13;;;5.90;79.00;;;;;;5107134;28;20358;-41
2021/01/04 08:48:34;;;;;;;101.53;52.45;;;5.90;79.00;;;;;;5106239;28;20039;-41
2021/01/04 08:51:08;;;;;;;76.55;39.70;;;6.00;78.90;;;;;;5108643;28;20410;-42
2021/01/04 08:53:34;;;;;;;75.13;40.10;;;6.00;78.70;;;;;;5085131;28;20423;-42
2021/01/04 08:56:25;;;;;;;74.57;37.70;;;6.10;78.40;;;;;;5094899;28;20032;-42
2021/01/04 08:59:04;;;;;;;61.67;33.45;;;6.10;77.60;;;;;;5088718;28;20322;-43
2021/01/04 09:01:32;;;;;;;65.50;35.38;;;6.10;77.20;;;;;;5073752;28;20443;-44
2021/01/04 09:04:27;;;;;;;74.80;40.53;;;6.10;77.30;;;;;;5071865;28;20338;-44
2021/01/04 09:07:05;;;;;;;58.28;32.63;;;6.10;77.50;;;;;;5045113;28;20109;-43
2021/01/04 09:09:36;;;;;;;59.05;32.65;;;6.10;76.90;;;;;;5075688;28;20341;-43
2021/01/04 09:12:17;;;;;;;78.78;40.88;;;6.10;76.90;;;;;;5092424;28;20036;-42
2021/01/04 09:14:59;;;;;;;72.68;36.78;;;6.10;77.00;;;;;;5091300;28;20028;-41
2021/01/04 09:17:40;;;;;;;90.60;44.38;;;6.20;77.00;;;;;;5102382;28;20024;-41
2021/01/04 09:20:29;;;;;;;79.00;40.17;;;6.20;77.20;;;;;;5097254;28;20124;-41
2021/01/04 09:23:13;;;;;;;70.18;34.83;;;6.30;77.20;;;;;;5088672;28;20036;-41
2021/01/04 09:26:07;;;;;;;56.80;31.27;;;6.30;77.10;;;;;;5098692;28;20044;-41
2021/01/04 09:28:46;;;;;;;67.13;33.90;;;6.40;76.70;;;;;;5097667;28;20118;-41
2021/01/04 09:31:15;;;;;;;55.65;30.10;;;6.30;76.50;;;;;;5097669;28;20130;-41
2021/01/04 09:33:50;;;;;;;66.43;37.60;;;6.40;76.70;;;;;;5100478;28;20460;-43
2021/01/04 09:36:20;;;;;;;65.53;36.17;;;6.40;76.80;;;;;;5099233;28;20411;-42
2021/01/04 09:39:15;;;;;;;57.80;31.35;;;6.50;76.80;;;;;;5103651;28;20123;-41
2021/01/04 09:41:42;;;;;;;66.13;32.95;;;6.50;76.70;;;;;;5095866;28;20375;-41
2021/01/04 09:44:13;;;;;;;79.40;42.22;;;6.60;77.00;;;;;;5097443;28;20027;-44
2021/01/04 09:46:56;;;;;;;76.43;40.47;;;6.60;76.90;;;;;;5097863;28;20032;-42
2021/01/04 09:49:24;;;;;;;66.80;34.72;;;6.70;76.70;;;;;;5096501;28;20029;-39
2021/01/04 09:52:00;;;;;;;68.95;32.95;;;6.70;76.20;;;;;;5097464;28;20089;-41
2021/01/04 09:54:33;;;;;;;69.65;34.60;;;6.80;76.00;;;;;;5096289;28;20024;-41
2021/01/04 09:57:01;;;;;;;51.78;25.92;;;6.80;76.00;;;;;;5098173;28;20032;-41
2021/01/04 09:59:27;;;;;;;61.10;29.65;;;6.80;75.90;;;;;;5097521;28;20371;-42
2021/01/04 10:01:56;;;;;;;60.88;31.25;;;6.80;75.60;;;;;;5102167;28;20068;-41
2021/01/04 10:04:30;;;;;;;53.60;28.40;;;6.80;75.50;;;;;;5096346;28;20039;-41
2021/01/04 10:07:03;;;;;;;43.10;24.73;;;6.80;75.30;;;;;;5096456;28;20330;-42
2021/01/04 10:09:37;;;;;;;76.57;40.88;;;6.80;75.10;;;;;;5095880;28;20020;-41
2021/01/04 10:12:04;;;;;;;72.63;38.67;;;6.80;75.10;;;;;;5096204;28;20146;-41
2021/01/04 10:14:32;;;;;;;56.03;29.77;;;6.80;75.00;;;;;;5096037;28;20068;-42
2021/01/04 10:17:00;;;;;;;62.28;31.08;;;6.80;75.10;;;;;;5096508;28;20506;-41
2021/01/04 10:19:37;;;;;;;65.88;35.42;;;6.80;75.00;;;;;;5096710;28;20117;-41
2021/01/04 10:22:22;;;;;;;81.93;41.38;;;6.80;74.80;;;;;;5097373;28;20063;-41
2021/01/04 10:25:16;;;;;;;85.80;49.95;;;6.80;74.90;;;;;;5096951;28;20040;-41
2021/01/04 10:27:42;;;;;;;70.93;41.35;;;6.80;74.80;;;;;;5097881;28;20035;-41
2021/01/04 10:30:11;;;;;;;63.15;36.22;;;6.80;75.00;;;;;;5102044;28;20114;-40
2021/01/04 10:32:40;;;;;;;88.50;45.63;;;6.80;74.80;;;;;;5103516;28;20028;-41
2021/01/04 10:35:22;;;;;;;73.78;38.95;;;6.80;74.60;;;;;;5094173;28;20319;-40
2021/01/04 10:37:52;;;;;;;63.50;33.03;;;6.80;74.40;;;;;;5092074;28;20027;-40
2021/01/04 10:40:23;;;;;;;51.47;29.20;;;6.80;74.20;;;;;;5094661;28;20462;-39
2021/01/04 10:43:00;;;;;;;52.50;29.23;;;6.80;74.10;;;;;;5106988;28;20043;-41
2021/01/04 10:45:44;;;;;;;53.90;30.17;;;6.70;74.00;;;;;;5097404;28;20040;-40
2021/01/04 10:48:15;;;;;;;46.20;25.80;;;6.60;73.80;;;;;;5102068;28;20055;-40
2021/01/04 10:50:46;;;;;;;49.83;28.35;;;6.60;73.70;;;;;;5106604;28;20024;-41
2021/01/04 10:53:36;;;;;;;48.15;27.02;;;6.60;73.80;;;;;;5106393;28;20079;-41
2021/01/04 10:56:16;;;;;;;52.33;29.40;;;6.50;74.10;;;;;;5102224;28;20073;-40
2021/01/04 10:59:07;;;;;;;75.38;42.42;;;6.40;74.10;;;;;;5099686;28;20115;-40
2021/01/04 11:01:38;;;;;;;53.50;29.27;;;6.40;74.40;;;;;;5097296;28;20352;-40
2021/01/04 11:04:13;;;;;;;62.63;32.83;;;6.40;74.50;;;;;;5095135;28;20020;-40
2021/01/04 11:06:41;;;;;;;45.03;23.92;;;6.40;74.50;;;;;;5094079;28;20248;-40
2021/01/04 11:09:27;;;;;;;54.70;28.17;;;6.30;74.50;;;;;;5092489;28;20020;-40
2021/01/04 11:12:05;;;;;;;47.42;25.50;;;6.30;74.50;;;;;;5086829;28;20036;-40
2021/01/04 11:14:31;;;;;;;48.28;27.05;;;6.30;74.70;;;;;;5101421;28;20027;-42
2021/01/04 11:17:07;;;;;;;61.90;36.22;;;6.30;74.80;;;;;;5098405;28;20073;-41
2021/01/04 11:19:36;;;;;;;61.92;32.92;;;6.30;74.80;;;;;;5101001;28;20055;-41
2021/01/04 11:22:13;;;;;;;42.30;23.67;;;6.20;74.80;;;;;;5096638;28;20323;-40
2021/01/04 11:24:39;;;;;;;48.28;27.23;;;6.20;74.80;;;;;;5094970;28;20028;-40
2021/01/04 11:27:06;;;;;;;47.58;27.85;;;6.10;74.70;;;;;;5096393;28;20048;-40
2021/01/04 11:29:33;;;;;;;41.40;24.08;;;6.10;74.60;;;;;;5096214;28;20034;-40
2021/01/04 11:31:58;;;;;;;55.70;27.73;;;6.10;74.50;;;;;;5095288;28;20073;-40
2021/01/04 11:34:24;;;;;;;49.88;27.27;;;6.10;74.60;;;;;;5095870;28;20020;-41
2021/01/04 11:36:50;;;;;;;42.72;24.13;;;6.10;74.70;;;;;;5096547;28;20356;-40
2021/01/04 11:39:17;;;;;;;51.65;26.95;;;6.00;74.70;;;;;;5095140;28;20038;-41
2021/01/04 11:41:44;;;;;;;51.22;28.50;;;6.00;74.90;;;;;;5096614;28;20350;-40
2021/01/04 11:44:10;;;;;;;48.63;27.80;;;6.00;75.00;;;;;;5095478;28;20116;-42
2021/01/04 11:46:35;;;;;;;44.88;24.70;;;5.90;74.80;;;;;;5108832;28;20585;-40
2021/01/04 11:49:01;;;;;;;49.47;28.88;;;5.90;74.80;;;;;;5095651;28;20118;-41
2021/01/04 11:51:27;;;;;;;47.58;28.73;;;5.90;74.70;;;;;;5104615;28;20112;-40
2021/01/04 11:53:54;;;;;;;49.97;28.08;;;5.90;74.70;;;;;;5114960;28;20024;-41
2021/01/04 11:56:22;;;;;;;50.13;26.20;;;5.80;74.90;;;;;;5111631;28;20031;-41
2021/01/04 11:58:50;;;;;;;41.80;23.65;;;5.80;75.00;;;;;;5095084;28;20023;-42
2021/01/04 12:01:18;;;;;;;45.75;24.38;;;5.80;75.20;;;;;;5077119;28;20383;-41
2021/01/04 12:03:44;;;;;;;41.85;23.98;;;5.80;75.40;;;;;;5121311;27;20114;-41
2021/01/04 12:06:12;;;;;;;46.80;26.70;;;5.80;75.50;;;;;;5116380;28;20035;-39
2021/01/04 12:08:38;;;;;;;45.10;26.05;;;5.80;75.50;;;;;;5102194;28;20028;-39
2021/01/04 12:11:04;;;;;;;44.45;25.73;;;5.80;75.50;;;;;;5104695;28;20032;-39
2021/01/04 12:13:30;;;;;;;40.20;21.35;;;5.70;75.40;;;;;;5090861;28;20026;-38
2021/01/04 12:15:57;;;;;;;39.78;22.90;;;5.70;75.60;;;;;;5081656;28;20032;-39
2021/01/04 12:18:23;;;;;;;45.80;25.15;;;5.70;75.70;;;;;;5082429;28;20123;-40
2021/01/04 12:20:49;;;;;;;42.88;23.63;;;5.70;75.80;;;;;;5103150;28;20492;-44
2021/01/04 12:23:16;;;;;;;43.13;24.38;;;5.80;75.90;;;;;;5093037;28;20036;-43
2021/01/04 12:25:42;;;;;;;41.55;24.02;;;5.80;75.80;;;;;;5093465;28;20502;-47
2021/01/04 12:28:08;;;;;;;39.78;23.65;;;5.80;75.60;;;;;;5105873;28;20048;-47
2021/01/04 12:30:34;;;;;;;57.45;28.90;;;5.80;75.40;;;;;;5096007;28;20028;-37
2021/01/04 12:33:00;;;;;;;69.45;33.83;;;5.80;75.20;;;;;;5096396;28;20096;-41
2021/01/04 12:35:27;;;;;;;69.65;36.65;;;5.70;75.10;;;;;;5093874;28;20020;-40
2021/01/04 12:37:53;;;;;;;51.25;27.73;;;5.70;75.20;;;;;;5094035;28;20417;-42
2021/01/04 12:40:25;;;;;;;42.90;25.77;;;5.70;75.40;;;;;;5094491;28;20384;-40
2021/01/04 12:42:51;;;;;;;47.45;29.55;;;5.70;75.40;;;;;;5095100;28;20032;-41
2021/01/04 12:45:17;;;;;;;39.20;21.85;;;5.70;75.40;;;;;;5099110;28;20097;-38
2021/01/04 12:47:43;;;;;;;52.10;28.05;;;5.70;75.40;;;;;;5097958;28;20056;-41
2021/01/04 12:50:09;;;;;;;61.17;32.97;;;5.60;75.40;;;;;;5095475;28;20051;-41
2021/01/04 12:52:35;;;;;;;66.03;38.30;;;5.60;75.40;;;;;;5097068;28;20020;-39
2021/01/04 12:55:01;;;;;;;43.72;26.08;;;5.60;75.40;;;;;;5098660;27;20070;-37
2021/01/04 12:57:26;;;;;;;33.97;20.15;;;5.60;75.20;;;;;;5100325;28;20031;-38
2021/01/04 12:59:53;;;;;;;55.65;28.88;;;5.50;75.20;;;;;;5109616;28;20431;-38
2021/01/04 13:02:18;;;;;;;39.20;21.38;;;5.50;75.30;;;;;;5092763;28;20442;-40
2021/01/04 13:04:45;;;;;;;34.15;21.33;;;5.50;75.60;;;;;;5077423;28;20040;-42
2021/01/04 13:07:11;;;;;;;41.20;23.30;;;5.50;75.70;;;;;;5077529;28;20029;-41
2021/01/04 13:09:38;;;;;;;44.05;25.95;;;5.50;75.80;;;;;;5100107;28;20176;-40
2021/01/04 13:12:05;;;;;;;36.15;21.65;;;5.40;75.90;;;;;;5116863;28;20097;-43
2021/01/04 13:14:31;;;;;;;37.80;20.38;;;5.50;76.10;;;;;;5097987;28;20333;-41
2021/01/04 13:16:57;;;;;;;40.38;24.08;;;5.50;76.10;;;;;;5098329;28;20311;-40
2021/01/04 13:19:28;;;;;;;32.45;19.52;;;5.50;76.10;;;;;;5097989;28;20060;-39